Time;durP1;ratioP1;P1;durP2;ratioP2;P2;SDS_P1;SDS_P2;PMS_P1;PMS_P2;Temp;Humidity;BMP_temperature;BMP_pressure;BME280_temperature;BME280_humidity;BME280_pressure;Samples;Min_cycle;Max_cycle;Signal;HPM_P1;HPM_P2
2022/03/09 00:00:31;;;;;;;11.07;5.60;;;20.20;46.30;;;;;;4951692;28;90182;-85
2022/03/09 00:02:56;;;;;;;11.32;6.15;;;20.20;46.30;;;;;;4951598;28;90937;-85
2022/03/09 00:05:22;;;;;;;8.35;5.40;;;20.20;46.50;;;;;;4951376;28;90272;-89
2022/03/09 00:07:48;;;;;;;12.30;5.97;;;20.10;46.90;;;;;;4951302;28;87637;-85
2022/03/09 00:10:14;;;;;;;11.93;5.75;;;20.10;46.30;;;;;;4952921;28;87750;-87
2022/03/09 00:12:39;;;;;;;10.38;5.32;;;20.10;46.30;;;;;;4951627;28;90071;-85
2022/03/09 00:15:05;;;;;;;12.02;5.70;;;20.10;47.00;;;;;;4950128;28;89219;-85
2022/03/09 00:17:33;;;;;;;9.63;5.35;;;20.10;46.20;;;;;;4952993;28;87996;-85
2022/03/09 00:20:04;;;;;;;12.93;6.43;;;20.10;46.30;;;;;;4950939;28;89272;-85
2022/03/09 00:22:30;;;;;;;9.73;5.25;;;20.10;46.10;;;;;;4949948;28;91863;-85
2022/03/09 00:24:55;;;;;;;11.55;5.60;;;20.10;47.00;;;;;;4952728;28;88513;-86
2022/03/09 00:27:21;;;;;;;8.88;5.40;;;20.10;46.00;;;;;;4952743;28;87574;-87
2022/03/09 00:29:47;;;;;;;10.35;5.45;;;20.10;46.00;;;;;;4952297;28;88017;-86
2022/03/09 00:32:13;;;;;;;9.43;5.60;;;20.10;46.00;;;;;;4953858;28;90854;-85
2022/03/09 00:34:39;;;;;;;13.40;6.03;;;20.00;45.90;;;;;;4953922;28;90417;-85
2022/03/09 00:37:05;;;;;;;8.77;4.93;;;20.00;46.00;;;;;;4955798;28;87079;-83
2022/03/09 00:39:30;;;;;;;8.00;5.30;;;20.00;46.00;;;;;;4954107;28;87073;-85
2022/03/09 00:41:56;;;;;;;9.88;5.65;;;20.00;46.00;;;;;;4953912;28;90499;-86
2022/03/09 00:44:22;;;;;;;8.38;4.63;;;20.00;46.00;;;;;;4954968;28;87960;-85
2022/03/09 00:46:48;;;;;;;9.63;5.45;;;20.00;45.90;;;;;;4952716;28;88257;-86
2022/03/09 00:49:14;;;;;;;9.20;5.60;;;20.00;46.00;;;;;;4954729;28;89565;-86
2022/03/09 00:51:40;;;;;;;9.10;5.10;;;20.00;46.10;;;;;;4954230;28;90575;-86
2022/03/09 00:54:06;;;;;;;9.07;5.25;;;19.90;45.90;;;;;;4955256;28;89862;-87
2022/03/09 00:56:33;;;;;;;10.68;5.38;;;19.90;45.80;;;;;;4954187;28;86980;-85
2022/03/09 00:58:59;;;;;;;9.85;5.03;;;19.90;45.80;;;;;;4954366;28;89530;-86
2022/03/09 01:01:24;;;;;;;10.38;5.50;;;19.90;45.90;;;;;;4955479;28;88091;-85
2022/03/09 01:03:50;;;;;;;8.93;5.38;;;19.90;45.80;;;;;;4955032;28;89947;-88
2022/03/09 01:06:18;;;;;;;10.00;5.55;;;19.90;45.80;;;;;;4955195;28;87490;-85
2022/03/09 01:08:44;;;;;;;9.35;5.30;;;19.90;45.80;;;;;;4954931;28;87771;-86
2022/03/09 01:11:10;;;;;;;9.68;5.03;;;19.90;45.80;;;;;;4953495;28;91477;-87
2022/03/09 01:13:36;;;;;;;8.65;4.93;;;19.80;45.60;;;;;;4954945;28;91126;-85
2022/03/09 01:16:03;;;;;;;9.57;5.43;;;19.80;45.80;;;;;;4947077;28;87323;-85
2022/03/09 01:18:28;;;;;;;8.73;4.82;;;19.80;45.60;;;;;;4947082;28;88492;-85
2022/03/09 01:20:54;;;;;;;8.68;4.63;;;19.80;45.60;;;;;;4955173;28;87592;-85
2022/03/09 01:23:20;;;;;;;7.03;4.55;;;19.80;45.50;;;;;;4954563;28;89814;-87
2022/03/09 01:25:45;;;;;;;8.98;5.15;;;19.80;45.70;;;;;;4954637;28;87252;-85
2022/03/09 01:28:11;;;;;;;9.82;5.30;;;19.80;45.60;;;;;;4954518;28;88615;-86
2022/03/09 01:30:37;;;;;;;8.63;5.28;;;19.80;45.80;;;;;;4953733;28;90255;-88
2022/03/09 01:33:02;;;;;;;8.77;4.90;;;19.80;45.50;;;;;;4954687;28;90020;-85
2022/03/09 01:35:28;;;;;;;8.60;5.07;;;19.80;45.40;;;;;;4954277;28;88398;-87
2022/03/09 01:37:54;;;;;;;9.90;5.25;;;19.80;45.40;;;;;;4953618;28;89498;-86
2022/03/09 01:40:19;;;;;;;10.07;5.28;;;19.80;45.70;;;;;;4954161;28;90615;-85
2022/03/09 01:42:45;;;;;;;8.85;4.88;;;19.80;45.40;;;;;;4954681;28;87495;-86
2022/03/09 01:45:12;;;;;;;8.05;5.13;;;19.70;45.30;;;;;;4953518;28;87110;-86
2022/03/09 01:47:38;;;;;;;9.65;5.05;;;19.70;45.30;;;;;;4953870;28;89561;-87
2022/03/09 01:50:06;;;;;;;7.60;5.15;;;19.70;45.40;;;;;;4953293;28;90427;-84
2022/03/09 01:52:33;;;;;;;7.05;4.70;;;19.70;45.30;;;;;;4953967;28;89646;-86
2022/03/09 01:54:59;;;;;;;8.57;4.93;;;19.70;45.50;;;;;;4960431;28;87551;-87
2022/03/09 01:57:32;;;;;;;7.78;5.13;;;19.70;45.20;;;;;;4954239;28;88976;-86
2022/03/09 01:59:59;;;;;;;8.32;4.95;;;19.70;45.20;;;;;;4952972;28;91343;-87
2022/03/09 02:02:24;;;;;;;7.78;4.60;;;19.70;45.10;;;;;;4961353;28;91201;-88
2022/03/09 02:04:51;;;;;;;9.65;4.80;;;19.70;45.20;;;;;;4955007;28;87470;-86
2022/03/09 02:07:17;;;;;;;7.93;4.07;;;19.70;45.10;;;;;;4953800;28;87337;-86
2022/03/09 02:09:46;;;;;;;7.25;4.63;;;19.70;45.10;;;;;;4955948;28;87600;-87
2022/03/09 02:12:14;;;;;;;7.38;4.30;;;19.70;45.20;;;;;;4954465;28;90418;-86
2022/03/09 02:14:42;;;;;;;7.88;5.03;;;19.60;45.00;;;;;;4954877;28;87862;-88
2022/03/09 02:17:12;;;;;;;8.40;4.65;;;19.60;45.00;;;;;;4953193;28;89561;-87
2022/03/09 02:19:38;;;;;;;;;;;19.60;45.00;;;;;;4955205;28;87820;-90
2022/03/09 02:22:10;;;;;;;8.63;4.90;;;19.60;45.00;;;;;;4954232;28;88966;-90
2022/03/09 02:24:36;;;;;;;7.97;4.90;;;19.60;44.90;;;;;;4954772;28;88124;-87
2022/03/09 02:27:06;;;;;;;7.35;4.40;;;19.60;45.00;;;;;;4957251;28;89424;-86
2022/03/09 02:29:34;;;;;;;7.50;4.57;;;19.60;45.10;;;;;;4951901;28;89418;-90
2022/03/09 02:32:01;;;;;;;7.53;4.53;;;19.60;45.10;;;;;;4952703;28;87713;-87
2022/03/09 02:34:28;;;;;;;6.53;4.82;;;19.60;45.00;;;;;;4951090;28;87916;-88
2022/03/09 02:36:53;;;;;;;8.27;5.05;;;19.60;45.10;;;;;;4951755;28;87664;-89
2022/03/09 02:39:19;;;;;;;6.28;4.25;;;19.60;45.30;;;;;;4950995;28;90947;-86
2022/03/09 02:41:45;;;;;;;7.00;4.15;;;19.60;45.30;;;;;;4952609;28;87603;-88
2022/03/09 02:44:10;;;;;;;10.50;4.78;;;19.60;45.60;;;;;;4951585;28;87635;-89
2022/03/09 02:46:36;;;;;;;7.38;4.50;;;19.60;45.60;;;;;;4949987;28;89495;-89
2022/03/09 02:49:02;;;;;;;7.18;4.18;;;19.60;45.10;;;;;;4950494;28;91195;-90
2022/03/09 02:51:27;;;;;;;7.20;4.38;;;19.60;45.60;;;;;;4950624;28;90943;-88
2022/03/09 02:53:53;;;;;;;8.75;4.78;;;19.60;45.60;;;;;;4949078;28;87950;-88
2022/03/09 02:56:19;;;;;;;8.30;4.97;;;19.60;45.60;;;;;;4949727;28;89475;-87
2022/03/09 02:58:45;;;;;;;9.43;5.28;;;19.60;45.60;;;;;;4966894;28;90226;-88
2022/03/09 03:01:13;;;;;;;8.65;5.50;;;19.60;45.70;;;;;;4951126;28;89007;-91
2022/03/09 03:03:40;;;;;;;7.05;4.60;;;19.60;46.00;;;;;;4952127;28;87149;-90
2022/03/09 03:06:06;;;;;;;8.82;4.72;;;19.50;45.90;;;;;;4950682;28;89448;-88
2022/03/09 03:08:33;;;;;;;6.05;4.43;;;19.50;46.10;;;;;;4951044;28;90740;-90
2022/03/09 03:11:07;;;;;;;7.13;4.60;;;19.50;46.00;;;;;;4948835;28;89953;-90
2022/03/09 03:13:32;;;;;;;10.02;5.18;;;19.50;46.00;;;;;;4950802;28;89407;-89
2022/03/09 03:15:58;;;;;;;8.55;4.97;;;19.50;45.90;;;;;;4950844;28;89208;-91
2022/03/09 03:18:24;;;;;;;6.38;4.57;;;19.50;45.90;;;;;;4951567;28;87762;-90
2022/03/09 03:20:54;;;;;;;6.38;4.85;;;19.50;46.00;;;;;;4951839;28;87293;-89
2022/03/09 03:23:23;;;;;;;8.80;5.10;;;19.50;46.00;;;;;;4950618;28;86938;-87
2022/03/09 03:25:53;;;;;;;7.78;5.10;;;19.50;46.10;;;;;;4951817;28;87329;-91
2022/03/09 03:28:21;;;;;;;9.40;5.40;;;19.50;46.00;;;;;;4952075;28;87684;-88
2022/03/09 03:30:47;;;;;;;8.38;4.90;;;19.40;46.00;;;;;;4952008;28;87591;-91
2022/03/09 03:33:17;;;;;;;6.07;4.47;;;19.50;46.10;;;;;;4951543;28;87549;-89
2022/03/09 03:35:43;;;;;;;8.68;5.28;;;19.40;46.00;;;;;;4952243;28;89450;-89
2022/03/09 03:38:09;;;;;;;9.95;5.10;;;19.40;46.00;;;;;;4949764;28;91253;-86
2022/03/09 03:40:35;;;;;;;8.02;5.03;;;19.40;45.90;;;;;;4950582;28;90566;-86
2022/03/09 03:43:00;;;;;;;8.00;4.35;;;19.40;45.30;;;;;;4952874;28;87034;-84
2022/03/09 03:45:26;;;;;;;5.88;4.47;;;19.40;45.20;;;;;;4951461;28;89511;-86
2022/03/09 03:48:03;;;;;;;6.95;4.55;;;19.40;45.40;;;;;;4950317;28;90452;-85
2022/03/09 03:50:29;;;;;;;5.97;4.20;;;19.40;45.40;;;;;;4951226;28;90382;-86
2022/03/09 03:52:55;;;;;;;6.30;4.10;;;19.40;45.30;;;;;;4952452;28;86971;-85
2022/03/09 03:55:21;;;;;;;7.32;4.68;;;19.30;45.00;;;;;;4952299;28;89511;-86
2022/03/09 03:57:46;;;;;;;6.53;4.63;;;19.30;45.00;;;;;;4951721;28;90195;-86
2022/03/09 04:00:13;;;;;;;7.10;4.45;;;19.30;45.70;;;;;;4954181;28;86901;-85
2022/03/09 04:02:39;;;;;;;7.07;4.65;;;19.30;44.80;;;;;;4950892;28;88269;-85
2022/03/09 04:05:05;;;;;;;8.63;4.88;;;19.30;44.80;;;;;;4952069;28;87478;-85
2022/03/09 04:07:31;;;;;;;8.00;4.18;;;19.30;44.80;;;;;;4951829;28;91242;-87
2022/03/09 04:09:57;;;;;;;8.48;4.95;;;19.30;44.50;;;;;;4952057;28;89904;-85
2022/03/09 04:12:26;;;;;;;5.90;3.88;;;19.30;44.50;;;;;;4951885;28;87821;-88
2022/03/09 04:14:55;;;;;;;6.07;4.17;;;19.30;44.50;;;;;;4951429;28;89088;-86
2022/03/09 04:17:20;;;;;;;8.82;4.53;;;19.30;44.40;;;;;;4952922;28;87814;-86
2022/03/09 04:19:46;;;;;;;6.82;4.78;;;19.30;44.30;;;;;;4953618;28;87628;-86
2022/03/09 04:22:12;;;;;;;7.25;4.85;;;19.30;44.20;;;;;;4953657;28;87799;-87
2022/03/09 04:24:38;;;;;;;6.05;4.22;;;19.30;44.20;;;;;;4952268;28;89099;-86
2022/03/09 04:27:04;;;;;;;5.55;4.30;;;19.20;44.10;;;;;;4950039;28;91647;-87
2022/03/09 04:29:37;;;;;;;5.82;4.07;;;19.20;43.90;;;;;;4951213;28;92259;-86
2022/03/09 04:32:03;;;;;;;6.50;4.47;;;19.20;44.00;;;;;;4953664;28;87470;-87
2022/03/09 04:34:29;;;;;;;6.63;4.07;;;19.20;43.80;;;;;;4951612;28;88457;-87
2022/03/09 04:36:55;;;;;;;6.03;4.18;;;19.20;43.90;;;;;;4950692;28;90135;-85
2022/03/09 04:39:20;;;;;;;6.65;4.18;;;19.20;43.80;;;;;;4967360;28;90077;-85
2022/03/09 04:41:46;;;;;;;6.88;4.25;;;19.20;43.80;;;;;;4953227;28;87525;-89
2022/03/09 04:44:12;;;;;;;8.10;4.32;;;19.20;43.60;;;;;;4951718;28;89180;-88
2022/03/09 04:46:37;;;;;;;5.35;3.95;;;19.20;43.50;;;;;;4953393;28;87785;-87
2022/03/09 04:49:03;;;;;;;7.10;4.35;;;19.20;43.60;;;;;;4964236;22;88061;-84
2022/03/09 04:51:28;;;;;;;4.72;3.58;;;19.10;43.60;;;;;;4945282;28;87959;-84
2022/03/09 04:53:54;;;;;;;5.43;4.03;;;19.10;43.60;;;;;;4928753;28;87580;-84
2022/03/09 04:56:19;;;;;;;6.30;4.00;;;19.10;43.50;;;;;;4928562;28;90589;-84
2022/03/09 04:58:45;;;;;;;7.28;4.75;;;19.10;43.40;;;;;;4929880;28;87521;-84
2022/03/09 05:01:11;;;;;;;7.72;4.93;;;19.10;43.50;;;;;;4929985;28;87705;-84
2022/03/09 05:03:37;;;;;;;4.68;3.50;;;19.10;43.40;;;;;;4929868;28;88028;-84
2022/03/09 05:06:03;;;;;;;5.88;4.00;;;19.10;43.30;;;;;;4929714;28;88263;-83
2022/03/09 05:08:29;;;;;;;5.40;3.72;;;19.10;43.30;;;;;;4929323;28;89120;-84
2022/03/09 05:10:55;;;;;;;6.93;4.43;;;19.10;43.30;;;;;;4929874;28;87876;-83
2022/03/09 05:13:22;;;;;;;6.97;4.15;;;19.10;43.30;;;;;;4929822;28;87349;-84
2022/03/09 05:15:48;;;;;;;7.53;4.25;;;19.10;43.10;;;;;;4929126;28;92114;-84
2022/03/09 05:18:16;;;;;;;7.70;4.60;;;19.00;43.20;;;;;;4946359;28;93065;-84
2022/03/09 05:20:41;;;;;;;5.15;3.67;;;19.00;43.10;;;;;;4932122;28;87666;-84
2022/03/09 05:23:07;;;;;;;4.43;3.97;;;19.00;43.00;;;;;;4932885;28;86962;-83
2022/03/09 05:25:33;;;;;;;6.20;3.88;;;19.00;42.90;;;;;;4932141;28;89016;-84
2022/03/09 05:28:00;;;;;;;5.70;3.75;;;19.00;43.10;;;;;;4930577;28;90429;-83
2022/03/09 05:30:26;;;;;;;5.95;3.90;;;19.00;43.10;;;;;;4933181;28;87189;-84
2022/03/09 05:32:52;;;;;;;6.03;4.32;;;19.00;42.90;;;;;;4933372;28;86620;-85
2022/03/09 05:35:17;;;;;;;5.20;3.85;;;19.00;43.00;;;;;;4933307;28;88115;-84
2022/03/09 05:37:44;;;;;;;5.68;3.88;;;19.00;42.80;;;;;;4931417;28;90110;-84
2022/03/09 05:40:11;;;;;;;4.97;3.85;;;19.00;42.80;;;;;;4932681;28;88638;-85
2022/03/09 05:42:37;;;;;;;5.65;3.83;;;18.90;42.70;;;;;;4931941;28;88142;-85
2022/03/09 05:45:04;;;;;;;7.35;4.68;;;18.90;42.90;;;;;;4931711;28;91224;-84
2022/03/09 05:47:30;;;;;;;4.95;3.83;;;18.90;42.80;;;;;;4932460;28;88992;-84
2022/03/09 05:49:56;;;;;;;4.90;3.85;;;18.90;42.80;;;;;;4932166;28;87783;-84
2022/03/09 05:52:21;;;;;;;5.05;3.65;;;18.90;42.70;;;;;;4931173;28;91025;-84
2022/03/09 05:54:47;;;;;;;5.68;3.67;;;18.90;42.70;;;;;;4933469;28;87687;-84
2022/03/09 05:57:17;;;;;;;5.38;3.55;;;18.90;42.70;;;;;;4933271;28;87611;-84
2022/03/09 05:59:45;;;;;;;4.93;3.90;;;18.90;42.80;;;;;;4931890;28;88188;-84
2022/03/09 06:02:11;;;;;;;4.35;3.55;;;18.90;42.90;;;;;;4931691;28;87791;-84
2022/03/09 06:04:37;;;;;;;6.10;4.15;;;18.90;42.60;;;;;;4931131;28;89578;-84
2022/03/09 06:07:03;;;;;;;6.15;4.15;;;18.90;42.70;;;;;;4932493;28;87244;-84
2022/03/09 06:09:29;;;;;;;5.97;3.85;;;18.90;42.60;;;;;;4930461;28;88525;-84
2022/03/09 06:11:55;;;;;;;5.45;3.80;;;18.90;42.50;;;;;;4932327;28;87292;-84
2022/03/09 06:14:20;;;;;;;5.13;3.90;;;18.80;42.50;;;;;;4932179;28;87883;-84
2022/03/09 06:16:49;;;;;;;5.45;3.72;;;18.80;42.40;;;;;;4932131;28;87872;-84
2022/03/09 06:19:15;;;;;;;4.87;3.70;;;18.80;42.50;;;;;;4932519;28;88017;-84
2022/03/09 06:21:41;;;;;;;4.20;3.80;;;18.80;42.40;;;;;;4932706;28;86785;-83
2022/03/09 06:24:07;;;;;;;4.50;3.72;;;18.80;42.50;;;;;;4931090;28;89581;-84
2022/03/09 06:26:33;;;;;;;4.82;3.78;;;18.80;42.50;;;;;;4930400;28;90385;-84
2022/03/09 06:28:59;;;;;;;6.38;3.83;;;18.80;42.40;;;;;;4931805;28;88299;-84
2022/03/09 06:31:24;;;;;;;4.85;3.70;;;18.80;42.50;;;;;;4932269;28;87302;-84
2022/03/09 06:33:50;;;;;;;4.80;3.80;;;18.80;42.50;;;;;;4932497;28;89079;-84
2022/03/09 06:36:16;;;;;;;4.85;3.70;;;18.80;42.30;;;;;;4932042;28;87953;-84
2022/03/09 06:38:41;;;;;;;4.30;3.72;;;18.80;42.30;;;;;;4932345;28;87518;-84
2022/03/09 06:41:07;;;;;;;7.40;3.85;;;18.80;42.30;;;;;;4932044;28;88052;-84
2022/03/09 06:43:33;;;;;;;5.97;4.15;;;18.80;42.20;;;;;;4932159;28;87803;-83
2022/03/09 06:46:06;;;;;;;5.38;3.88;;;18.90;42.40;;;;;;4932961;28;86392;-84
2022/03/09 06:48:32;;;;;;;5.00;3.20;;;18.80;42.20;;;;;;4931954;28;87623;-84
2022/03/09 06:50:57;;;;;;;5.85;4.15;;;18.80;42.20;;;;;;4929911;28;89084;-84
2022/03/09 06:53:23;;;;;;;5.43;4.00;;;18.80;42.00;;;;;;4931449;28;89326;-84
2022/03/09 06:55:49;;;;;;;5.53;3.70;;;18.90;42.20;;;;;;4931439;28;87492;-84
2022/03/09 06:58:14;;;;;;;4.70;3.72;;;18.80;42.70;;;;;;4931607;28;87318;-84
2022/03/09 07:00:40;;;;;;;4.65;3.30;;;18.90;42.10;;;;;;4930301;28;90715;-85
2022/03/09 07:03:06;;;;;;;5.35;3.67;;;18.90;42.10;;;;;;4930935;28;87625;-85
2022/03/09 07:05:32;;;;;;;5.85;3.40;;;18.90;42.30;;;;;;4932174;28;87762;-84
2022/03/09 07:07:59;;;;;;;4.55;3.85;;;18.90;42.10;;;;;;4930514;28;87121;-84
2022/03/09 07:10:25;;;;;;;5.85;3.90;;;18.90;42.00;;;;;;4932090;28;87038;-87
2022/03/09 07:12:51;;;;;;;4.97;3.97;;;19.00;41.00;;;;;;4931447;28;88165;-84
2022/03/09 07:15:17;;;;;;;4.70;3.50;;;19.00;41.90;;;;;;4931521;28;89538;-83
2022/03/09 07:17:45;;;;;;;5.25;4.03;;;19.00;41.70;;;;;;4930867;28;88122;-83
2022/03/09 07:20:11;;;;;;;6.65;4.53;;;19.10;41.80;;;;;;4931358;28;88176;-83
2022/03/09 07:22:38;;;;;;;7.15;3.90;;;19.10;41.90;;;;;;4931936;28;88164;-85
2022/03/09 07:25:04;;;;;;;4.13;3.10;;;19.30;43.20;;;;;;4931561;28;87998;-83
2022/03/09 07:27:37;;;;;;;5.90;4.15;;;19.30;43.30;;;;;;4931506;28;87167;-84
2022/03/09 07:30:04;;;;;;;7.03;3.17;;;19.40;43.80;;;;;;4931238;28;87562;-84
2022/03/09 07:32:30;;;;;;;5.00;3.50;;;19.50;44.90;;;;;;4930062;28;90261;-85
2022/03/09 07:34:55;;;;;;;4.28;3.35;;;19.50;44.70;;;;;;4930974;28;87692;-86
2022/03/09 07:37:21;;;;;;;4.93;3.63;;;19.60;45.30;;;;;;4930325;28;88037;-83
2022/03/09 07:39:47;;;;;;;5.85;3.60;;;19.70;45.60;;;;;;4929990;28;89054;-85
2022/03/09 07:42:13;;;;;;;11.75;3.75;;;19.70;45.10;;;;;;4930899;28;88709;-84
2022/03/09 07:44:38;;;;;;;6.07;2.97;;;19.80;45.20;;;;;;4931807;28;88777;-85
2022/03/09 07:47:04;;;;;;;5.97;3.40;;;19.80;45.40;;;;;;4933100;28;87766;-84
2022/03/09 07:49:33;;;;;;;5.63;3.60;;;19.80;45.40;;;;;;4934392;28;87872;-84
2022/03/09 07:52:02;;;;;;;6.28;3.70;;;19.80;45.30;;;;;;4932373;28;88628;-84
2022/03/09 07:54:28;;;;;;;;;;;19.80;45.20;;;;;;4931381;28;87196;-85
2022/03/09 07:56:55;;;;;;;6.38;3.42;;;19.90;46.00;;;;;;4931595;28;87768;-84
2022/03/09 07:59:20;;;;;;;4.20;3.28;;;19.90;45.20;;;;;;4931609;28;86626;-84
2022/03/09 08:01:52;;;;;;;4.65;2.88;;;19.90;44.60;;;;;;4930589;28;89179;-85
2022/03/09 08:04:22;;;;;;;3.28;2.67;;;19.90;44.80;;;;;;4929134;28;89320;-85
2022/03/09 08:06:51;;;;;;;6.68;3.25;;;19.90;44.80;;;;;;4930505;28;88806;-85
2022/03/09 08:09:17;;;;;;;5.03;3.58;;;19.90;44.70;;;;;;4931284;28;87650;-85
2022/03/09 08:11:45;;;;;;;5.15;3.50;;;19.90;44.90;;;;;;4931211;28;88335;-84
2022/03/09 08:14:12;;;;;;;4.60;3.43;;;19.90;44.80;;;;;;4872065;28;90119;-85
2022/03/09 08:16:37;;;;;;;7.85;4.00;;;19.90;44.00;;;;;;4928830;28;87428;-84
2022/03/09 08:19:04;;;;;;;70.95;12.85;;;19.90;43.20;;;;;;4919040;28;88141;-85
2022/03/09 08:21:30;;;;;;;22.83;6.07;;;19.90;42.80;;;;;;4923405;28;91134;-87
2022/03/09 08:23:55;;;;;;;13.93;4.78;;;19.90;43.80;;;;;;4917349;28;88451;-86
2022/03/09 08:26:21;;;;;;;25.02;7.00;;;19.90;44.10;;;;;;4915610;28;87691;-86
2022/03/09 08:28:46;;;;;;;22.17;6.07;;;20.00;44.40;;;;;;4925468;28;88950;-86
2022/03/09 08:31:12;;;;;;;18.65;5.30;;;20.00;44.30;;;;;;4920116;28;89206;-83
2022/03/09 08:33:38;;;;;;;33.83;8.18;;;20.00;44.30;;;;;;4923629;28;88358;-84
2022/03/09 08:36:04;;;;;;;32.95;8.02;;;20.10;43.20;;;;;;4921803;28;87483;-84
2022/03/09 08:38:30;;;;;;;22.85;6.18;;;20.10;42.40;;;;;;4915255;28;88820;-85
2022/03/09 08:40:58;;;;;;;21.48;6.82;;;20.20;43.60;;;;;;4920078;28;90663;-86
2022/03/09 08:43:27;;;;;;;29.77;6.78;;;20.20;43.70;;;;;;4920560;28;87764;-85
2022/03/09 08:45:52;;;;;;;19.98;6.00;;;20.20;43.80;;;;;;4925436;28;87410;-85
2022/03/09 08:48:18;;;;;;;19.13;5.50;;;20.20;43.80;;;;;;4919535;28;88072;-85
2022/03/09 08:50:44;;;;;;;20.63;6.22;;;20.20;43.80;;;;;;4918923;28;90321;-84
2022/03/09 08:53:09;;;;;;;18.45;5.82;;;20.20;43.90;;;;;;4925634;28;87659;-85
2022/03/09 08:55:35;;;;;;;17.02;5.40;;;20.20;44.50;;;;;;4921259;28;88031;-85
2022/03/09 08:58:01;;;;;;;24.42;5.97;;;20.20;43.70;;;;;;4931529;28;88383;-84
2022/03/09 09:00:27;;;;;;;23.40;6.47;;;20.20;43.70;;;;;;4921151;28;87989;-82
2022/03/09 09:02:53;;;;;;;20.25;5.97;;;20.20;43.80;;;;;;4926695;28;87426;-85
2022/03/09 09:05:19;;;;;;;15.52;5.63;;;20.20;44.00;;;;;;4920188;28;87739;-85
2022/03/09 09:07:45;;;;;;;14.45;6.07;;;20.20;43.80;;;;;;4920102;28;87452;-85
2022/03/09 09:10:11;;;;;;;20.08;5.60;;;20.20;43.80;;;;;;4918473;28;87915;-85
2022/03/09 09:12:37;;;;;;;19.90;5.00;;;20.20;43.80;;;;;;4929521;28;87839;-85
2022/03/09 09:15:04;;;;;;;16.17;5.78;;;20.20;44.00;;;;;;4920302;28;87311;-85
2022/03/09 09:17:30;;;;;;;17.52;6.32;;;20.20;43.80;;;;;;4920583;28;89530;-85
2022/03/09 09:19:55;;;;;;;16.48;6.10;;;20.20;44.00;;;;;;4921821;28;91038;-85
2022/03/09 09:22:21;;;;;;;18.35;5.72;;;20.20;43.80;;;;;;4920603;28;88518;-85
2022/03/09 09:24:46;;;;;;;16.55;5.55;;;20.20;44.00;;;;;;4930330;28;87797;-84
2022/03/09 09:27:12;;;;;;;16.02;5.07;;;20.20;44.00;;;;;;4919428;28;89838;-85
2022/03/09 09:29:47;;;;;;;14.73;5.22;;;20.20;44.10;;;;;;4930031;28;91235;-85
2022/03/09 09:32:14;;;;;;;15.00;5.50;;;20.20;44.00;;;;;;4924399;28;87387;-85
2022/03/09 09:34:40;;;;;;;20.92;6.20;;;20.20;44.00;;;;;;4931281;28;88202;-85
2022/03/09 09:37:05;;;;;;;11.48;5.00;;;20.20;44.10;;;;;;4924256;28;87174;-85
2022/03/09 09:39:31;;;;;;;19.42;5.05;;;20.20;44.20;;;;;;4921481;28;88345;-85
2022/03/09 09:41:57;;;;;;;13.38;5.45;;;20.20;44.30;;;;;;4924247;28;91590;-85
2022/03/09 09:44:24;;;;;;;15.93;5.53;;;20.20;44.20;;;;;;4924832;28;88627;-85
2022/03/09 09:46:51;;;;;;;12.32;5.30;;;20.20;44.20;;;;;;4924756;28;87363;-85
2022/03/09 09:49:17;;;;;;;15.27;5.57;;;20.20;44.30;;;;;;4922001;28;90242;-85
2022/03/09 09:51:44;;;;;;;11.38;4.88;;;20.20;44.30;;;;;;4926204;28;88990;-85
2022/03/09 09:54:16;;;;;;;15.63;5.85;;;20.20;44.30;;;;;;4928589;28;86968;-85
2022/03/09 09:56:42;;;;;;;16.73;5.25;;;20.20;44.40;;;;;;4922657;28;87464;-85
2022/03/09 09:59:08;;;;;;;13.07;5.05;;;20.20;44.40;;;;;;4923430;28;89897;-85
2022/03/09 10:01:35;;;;;;;12.98;5.57;;;20.20;44.30;;;;;;4915027;28;90685;-85
2022/03/09 10:04:08;;;;;;;12.63;5.25;;;20.20;44.40;;;;;;4920717;28;88217;-85
2022/03/09 10:06:34;;;;;;;15.70;5.80;;;20.20;44.50;;;;;;4931078;28;88325;-84
2022/03/09 10:09:00;;;;;;;12.75;4.95;;;20.20;44.70;;;;;;4924309;28;88902;-85
2022/03/09 10:11:47;;;;;;;11.30;4.90;;;20.20;44.40;;;;;;4928800;28;91552;-85
2022/03/09 10:14:14;;;;;;;14.18;5.60;;;20.20;44.50;;;;;;4919929;28;88082;-85
2022/03/09 10:17:21;;;;;;;13.10;4.68;;;20.20;44.60;;;;;;4919221;28;88601;-84
2022/03/09 10:19:50;;;;;;;12.88;4.82;;;20.20;44.60;;;;;;4924041;28;88577;-84
2022/03/09 10:22:32;;;;;;;11.05;4.70;;;20.20;44.40;;;;;;4921139;28;87846;-85
2022/03/09 10:25:11;;;;;;;12.55;4.45;;;20.20;44.40;;;;;;4920598;28;87744;-85
2022/03/09 10:28:08;;;;;;;11.30;4.85;;;20.20;44.50;;;;;;4920860;28;87265;-85
2022/03/09 10:30:37;;;;;;;11.23;5.18;;;20.20;44.60;;;;;;4919938;28;87635;-85
2022/03/09 10:33:08;;;;;;;10.77;5.00;;;20.20;44.20;;;;;;4924781;28;87540;-84
2022/03/09 10:35:34;;;;;;;9.18;4.45;;;20.20;44.60;;;;;;4944850;28;88424;-85
2022/03/09 10:38:07;;;;;;;11.95;4.35;;;20.20;44.80;;;;;;4929553;28;88885;-84
2022/03/09 10:40:44;;;;;;;12.23;4.80;;;20.20;44.80;;;;;;4922629;28;88594;-84
2022/03/09 10:43:21;;;;;;;11.90;4.55;;;20.20;44.90;;;;;;4922107;28;87821;-84
2022/03/09 10:46:06;;;;;;;12.15;4.50;;;20.20;45.00;;;;;;4922921;28;86931;-85
2022/03/09 10:48:55;;;;;;;11.52;4.95;;;20.30;44.60;;;;;;4945044;28;90010;-85
2022/03/09 10:51:38;;;;;;;11.77;4.45;;;20.30;44.60;;;;;;4925112;28;87774;-83
2022/03/09 10:54:07;;;;;;;13.48;4.85;;;20.40;44.50;;;;;;4923983;28;87843;-85
2022/03/09 10:56:34;;;;;;;12.27;4.70;;;20.40;44.90;;;;;;4928967;28;87766;-85
2022/03/09 10:59:13;;;;;;;11.25;5.35;;;20.40;44.80;;;;;;4922769;28;87291;-83
2022/03/09 11:01:40;;;;;;;12.25;5.10;;;20.40;44.80;;;;;;4916781;28;88598;-84
2022/03/09 11:04:17;;;;;;;15.60;4.78;;;20.50;45.30;;;;;;4920166;28;88533;-84
2022/03/09 11:06:46;;;;;;;13.60;5.50;;;20.50;45.30;;;;;;4923278;28;87775;-85
2022/03/09 11:09:17;;;;;;;12.18;5.20;;;20.50;45.10;;;;;;4922475;28;86995;-85
2022/03/09 11:11:52;;;;;;;11.73;4.90;;;20.50;45.70;;;;;;4920928;28;91777;-84
2022/03/09 11:14:21;;;;;;;10.00;4.50;;;20.50;46.00;;;;;;4923064;28;87803;-84
2022/03/09 11:16:48;;;;;;;11.83;4.70;;;20.50;45.90;;;;;;4923307;28;87770;-85
2022/03/09 11:19:16;;;;;;;13.00;5.30;;;20.50;45.70;;;;;;4919844;28;89688;-85
2022/03/09 11:21:42;;;;;;;13.45;4.28;;;20.50;45.10;;;;;;4921914;28;87875;-84
2022/03/09 11:24:11;;;;;;;9.45;4.85;;;20.50;45.20;;;;;;4925269;28;90298;-85
2022/03/09 11:26:53;;;;;;;13.65;4.88;;;20.50;45.50;;;;;;4926531;28;88919;-86
2022/03/09 11:29:49;;;;;;;13.10;5.38;;;20.40;45.60;;;;;;4931458;28;89408;-85
2022/03/09 11:32:32;;;;;;;13.93;5.13;;;20.40;45.30;;;;;;4920007;28;90654;-85
2022/03/09 11:34:58;;;;;;;13.30;5.30;;;20.50;44.90;;;;;;4930593;28;90322;-84
2022/03/09 11:37:34;;;;;;;12.90;5.53;;;20.40;44.20;;;;;;4926638;28;87525;-85
2022/03/09 11:40:06;;;;;;;12.68;5.70;;;20.40;44.40;;;;;;4929487;28;89215;-84
2022/03/09 11:42:38;;;;;;;10.95;5.20;;;20.40;44.40;;;;;;4924223;28;88122;-86
2022/03/09 11:45:16;;;;;;;18.75;6.68;;;20.50;44.50;;;;;;4921974;28;90072;-86
2022/03/09 11:47:58;;;;;;;12.25;5.72;;;20.40;44.40;;;;;;4945023;28;88211;-84
2022/03/09 11:50:24;;;;;;;12.52;6.25;;;20.40;43.90;;;;;;4921737;28;88246;-84
2022/03/09 11:53:08;;;;;;;11.57;6.10;;;20.40;44.00;;;;;;4920549;28;89990;-85
2022/03/09 11:55:35;;;;;;;12.20;5.82;;;20.40;43.70;;;;;;4924096;28;88620;-84
2022/03/09 11:58:12;;;;;;;13.25;6.93;;;20.40;44.20;;;;;;4919643;28;87593;-85
2022/03/09 12:00:58;;;;;;;12.82;6.47;;;20.40;42.90;;;;;;4891127;28;87470;-84
2022/03/09 12:03:40;;;;;;;12.02;6.65;;;20.40;43.20;;;;;;4947878;28;89158;-85
2022/03/09 12:06:43;;;;;;;11.45;5.97;;;20.40;43.30;;;;;;4929952;28;90206;-86
2022/03/09 12:09:09;;;;;;;16.70;7.00;;;20.50;44.00;;;;;;4927881;28;86957;-85
2022/03/09 12:12:06;;;;;;;17.27;7.38;;;20.50;43.60;;;;;;4925395;28;87378;-84
2022/03/09 12:15:00;;;;;;;13.80;7.03;;;20.50;43.60;;;;;;4930827;28;90526;-84
2022/03/09 12:17:31;;;;;;;18.25;7.07;;;20.50;44.10;;;;;;4923321;28;87387;-85
2022/03/09 12:20:21;;;;;;;13.18;6.60;;;20.40;43.40;;;;;;4918975;28;88150;-85
2022/03/09 12:23:01;;;;;;;11.35;6.38;;;20.40;44.10;;;;;;4922715;28;87696;-85
2022/03/09 12:25:45;;;;;;;14.57;6.68;;;20.40;44.20;;;;;;4921778;28;87320;-85
2022/03/09 12:31:09;;;;;;;15.98;6.72;;;20.40;44.60;;;;;;4924004;28;87117;-86
2022/03/09 12:36:17;;;;;;;14.63;6.25;;;20.40;44.50;;;;;;4950458;28;88615;-84
2022/03/09 12:38:49;;;;;;;14.38;6.30;;;20.40;44.20;;;;;;4930800;28;89027;-84
2022/03/09 12:41:31;;;;;;;12.20;6.53;;;20.40;44.40;;;;;;4930785;28;87421;-87
2022/03/09 12:44:01;;;;;;;12.07;6.25;;;20.40;43.90;;;;;;4943862;28;89503;-88
2022/03/09 12:46:28;;;;;;;10.43;5.90;;;20.40;44.20;;;;;;4947578;28;91615;-85
2022/03/09 12:49:02;;;;;;;12.82;6.40;;;20.40;42.90;;;;;;4933402;28;88226;-87
2022/03/09 12:51:28;;;;;;;13.27;6.45;;;20.40;43.20;;;;;;4948259;28;87520;-87
2022/03/09 12:53:54;;;;;;;11.90;6.05;;;20.40;43.60;;;;;;4931202;28;87587;-86